sensor_id;sensor_type;location;lat;lon;timestamp;P1;durP1;ratioP1;P2;durP2;ratioP2
44486;SDS011;30191;50.908;6.962;2022-07-22T00:00:17;10.98;;;6.82;;
44486;SDS011;30191;50.908;6.962;2022-07-22T00:02:43;14.52;;;8.38;;
44486;SDS011;30191;50.908;6.962;2022-07-22T00:05:08;11.43;;;6.57;;
44486;SDS011;30191;50.908;6.962;2022-07-22T00:07:36;11.80;;;6.60;;
44486;SDS011;30191;50.908;6.962;2022-07-22T00:10:03;9.18;;;6.20;;
44486;SDS011;30191;50.908;6.962;2022-07-22T00:12:30;13.25;;;6.30;;
44486;SDS011;30191;50.908;6.962;2022-07-22T00:14:56;12.27;;;7.15;;
44486;SDS011;30191;50.908;6.962;2022-07-22T00:17:21;10.20;;;6.13;;
44486;SDS011;30191;50.908;6.962;2022-07-22T00:19:47;10.70;;;5.68;;
44486;SDS011;30191;50.908;6.962;2022-07-22T00:22:13;11.55;;;5.50;;
44486;SDS011;30191;50.908;6.962;2022-07-22T00:24:38;10.27;;;5.53;;
44486;SDS011;30191;50.908;6.962;2022-07-22T00:27:04;7.95;;;4.95;;
44486;SDS011;30191;50.908;6.962;2022-07-22T00:29:30;11.45;;;4.78;;
44486;SDS011;30191;50.908;6.962;2022-07-22T00:31:56;10.00;;;4.68;;
44486;SDS011;30191;50.908;6.962;2022-07-22T00:34:21;8.50;;;4.43;;
44486;SDS011;30191;50.908;6.962;2022-07-22T00:36:47;6.55;;;3.60;;
44486;SDS011;30191;50.908;6.962;2022-07-22T00:39:13;9.57;;;3.85;;
44486;SDS011;30191;50.908;6.962;2022-07-22T00:41:40;9.25;;;4.15;;
44486;SDS011;30191;50.908;6.962;2022-07-22T00:44:06;7.70;;;4.03;;
44486;SDS011;30191;50.908;6.962;2022-07-22T00:46:34;9.65;;;4.60;;
44486;SDS011;30191;50.908;6.962;2022-07-22T00:49:00;9.00;;;4.72;;
44486;SDS011;30191;50.908;6.962;2022-07-22T00:51:28;7.38;;;3.85;;
44486;SDS011;30191;50.908;6.962;2022-07-22T00:53:55;8.40;;;4.07;;
44486;SDS011;30191;50.908;6.962;2022-07-22T00:56:22;10.80;;;4.38;;
44486;SDS011;30191;50.908;6.962;2022-07-22T00:58:50;8.48;;;4.53;;
44486;SDS011;30191;50.908;6.962;2022-07-22T01:01:17;9.27;;;3.88;;
44486;SDS011;30191;50.908;6.962;2022-07-22T01:03:43;10.00;;;3.88;;
44486;SDS011;30191;50.908;6.962;2022-07-22T01:06:09;7.07;;;3.65;;
44486;SDS011;30191;50.908;6.962;2022-07-22T01:08:36;7.38;;;3.83;;
44486;SDS011;30191;50.908;6.962;2022-07-22T01:11:07;10.68;;;4.25;;
44486;SDS011;30191;50.908;6.962;2022-07-22T01:13:38;8.50;;;4.45;;
44486;SDS011;30191;50.908;6.962;2022-07-22T01:16:04;8.75;;;4.10;;
44486;SDS011;30191;50.908;6.962;2022-07-22T01:18:32;8.80;;;3.97;;
44486;SDS011;30191;50.908;6.962;2022-07-22T01:20:58;9.57;;;4.25;;
44486;SDS011;30191;50.908;6.962;2022-07-22T01:23:24;13.77;;;4.20;;
44486;SDS011;30191;50.908;6.962;2022-07-22T01:25:50;10.32;;;4.40;;
44486;SDS011;30191;50.908;6.962;2022-07-22T01:28:15;17.45;;;5.10;;
44486;SDS011;30191;50.908;6.962;2022-07-22T01:30:41;10.88;;;4.72;;
44486;SDS011;30191;50.908;6.962;2022-07-22T01:33:07;11.00;;;4.82;;
44486;SDS011;30191;50.908;6.962;2022-07-22T01:35:33;9.90;;;4.63;;
44486;SDS011;30191;50.908;6.962;2022-07-22T01:37:58;12.13;;;5.32;;
44486;SDS011;30191;50.908;6.962;2022-07-22T01:40:24;13.10;;;4.90;;
44486;SDS011;30191;50.908;6.962;2022-07-22T01:42:50;11.13;;;5.10;;
44486;SDS011;30191;50.908;6.962;2022-07-22T01:45:16;9.85;;;4.20;;
44486;SDS011;30191;50.908;6.962;2022-07-22T01:47:41;11.98;;;5.20;;
44486;SDS011;30191;50.908;6.962;2022-07-22T01:50:08;11.18;;;5.15;;
44486;SDS011;30191;50.908;6.962;2022-07-22T01:52:36;12.40;;;5.47;;
44486;SDS011;30191;50.908;6.962;2022-07-22T01:55:03;11.80;;;4.97;;
44486;SDS011;30191;50.908;6.962;2022-07-22T01:57:33;12.45;;;5.50;;
44486;SDS011;30191;50.908;6.962;2022-07-22T02:00:02;12.38;;;4.82;;
44486;SDS011;30191;50.908;6.962;2022-07-22T02:02:29;10.63;;;5.10;;
44486;SDS011;30191;50.908;6.962;2022-07-22T02:04:55;10.23;;;5.30;;
44486;SDS011;30191;50.908;6.962;2022-07-22T02:07:21;15.32;;;6.53;;
44486;SDS011;30191;50.908;6.962;2022-07-22T02:09:46;10.23;;;5.60;;
44486;SDS011;30191;50.908;6.962;2022-07-22T02:12:12;12.18;;;5.60;;
44486;SDS011;30191;50.908;6.962;2022-07-22T02:14:38;14.27;;;6.20;;
44486;SDS011;30191;50.908;6.962;2022-07-22T02:17:03;11.68;;;5.90;;
44486;SDS011;30191;50.908;6.962;2022-07-22T02:19:29;12.88;;;5.20;;
44486;SDS011;30191;50.908;6.962;2022-07-22T02:21:54;13.38;;;5.45;;
44486;SDS011;30191;50.908;6.962;2022-07-22T02:24:20;12.63;;;5.88;;
44486;SDS011;30191;50.908;6.962;2022-07-22T02:26:46;13.50;;;6.05;;
44486;SDS011;30191;50.908;6.962;2022-07-22T02:29:12;12.13;;;5.70;;
44486;SDS011;30191;50.908;6.962;2022-07-22T02:31:37;12.30;;;6.65;;
44486;SDS011;30191;50.908;6.962;2022-07-22T02:34:03;12.00;;;5.80;;
44486;SDS011;30191;50.908;6.962;2022-07-22T02:36:29;17.20;;;6.80;;
44486;SDS011;30191;50.908;6.962;2022-07-22T02:38:55;10.80;;;6.32;;
44486;SDS011;30191;50.908;6.962;2022-07-22T02:41:20;10.52;;;6.30;;
44486;SDS011;30191;50.908;6.962;2022-07-22T02:43:46;10.80;;;6.57;;
44486;SDS011;30191;50.908;6.962;2022-07-22T02:46:12;12.45;;;7.45;;
44486;SDS011;30191;50.908;6.962;2022-07-22T02:48:38;13.75;;;7.07;;
44486;SDS011;30191;50.908;6.962;2022-07-22T02:51:03;14.57;;;7.68;;
44486;SDS011;30191;50.908;6.962;2022-07-22T02:53:29;9.98;;;6.95;;
44486;SDS011;30191;50.908;6.962;2022-07-22T02:55:55;16.45;;;8.63;;
44486;SDS011;30191;50.908;6.962;2022-07-22T02:58:20;13.98;;;7.68;;
44486;SDS011;30191;50.908;6.962;2022-07-22T03:00:46;10.80;;;6.75;;
44486;SDS011;30191;50.908;6.962;2022-07-22T03:06:34;13.63;;;8.43;;
44486;SDS011;30191;50.908;6.962;2022-07-22T03:09:00;12.52;;;7.75;;
44486;SDS011;30191;50.908;6.962;2022-07-22T03:11:26;10.98;;;7.70;;
44486;SDS011;30191;50.908;6.962;2022-07-22T03:13:52;16.38;;;7.63;;
44486;SDS011;30191;50.908;6.962;2022-07-22T03:16:17;13.73;;;7.88;;
44486;SDS011;30191;50.908;6.962;2022-07-22T03:18:43;16.10;;;8.52;;
44486;SDS011;30191;50.908;6.962;2022-07-22T03:21:09;13.48;;;8.50;;
44486;SDS011;30191;50.908;6.962;2022-07-22T03:23:34;10.35;;;7.70;;
44486;SDS011;30191;50.908;6.962;2022-07-22T03:26:00;13.95;;;7.88;;
44486;SDS011;30191;50.908;6.962;2022-07-22T03:28:26;13.25;;;8.77;;
44486;SDS011;30191;50.908;6.962;2022-07-22T03:30:52;14.05;;;8.07;;
44486;SDS011;30191;50.908;6.962;2022-07-22T03:33:18;16.20;;;8.27;;
44486;SDS011;30191;50.908;6.962;2022-07-22T03:35:44;12.27;;;7.55;;
44486;SDS011;30191;50.908;6.962;2022-07-22T03:38:10;9.70;;;6.63;;
44486;SDS011;30191;50.908;6.962;2022-07-22T03:40:36;14.50;;;6.80;;
44486;SDS011;30191;50.908;6.962;2022-07-22T03:43:01;14.65;;;7.03;;
44486;SDS011;30191;50.908;6.962;2022-07-22T03:45:27;13.95;;;7.07;;
44486;SDS011;30191;50.908;6.962;2022-07-22T03:47:53;12.25;;;6.60;;
44486;SDS011;30191;50.908;6.962;2022-07-22T03:50:19;8.45;;;6.47;;
44486;SDS011;30191;50.908;6.962;2022-07-22T03:52:45;11.38;;;7.28;;
44486;SDS011;30191;50.908;6.962;2022-07-22T03:55:11;14.15;;;6.60;;
44486;SDS011;30191;50.908;6.962;2022-07-22T03:57:37;10.48;;;6.57;;
44486;SDS011;30191;50.908;6.962;2022-07-22T04:00:03;11.60;;;6.80;;
44486;SDS011;30191;50.908;6.962;2022-07-22T04:02:30;11.05;;;6.70;;
44486;SDS011;30191;50.908;6.962;2022-07-22T04:04:56;11.00;;;6.40;;
44486;SDS011;30191;50.908;6.962;2022-07-22T04:07:22;12.73;;;6.80;;
44486;SDS011;30191;50.908;6.962;2022-07-22T04:09:47;13.40;;;6.53;;
44486;SDS011;30191;50.908;6.962;2022-07-22T04:12:13;10.65;;;6.95;;
44486;SDS011;30191;50.908;6.962;2022-07-22T04:14:38;10.20;;;5.95;;
44486;SDS011;30191;50.908;6.962;2022-07-22T04:17:04;12.00;;;6.43;;
44486;SDS011;30191;50.908;6.962;2022-07-22T04:19:30;9.65;;;6.10;;
44486;SDS011;30191;50.908;6.962;2022-07-22T04:21:55;14.57;;;7.22;;
44486;SDS011;30191;50.908;6.962;2022-07-22T04:24:21;12.98;;;6.43;;
44486;SDS011;30191;50.908;6.962;2022-07-22T04:26:47;8.80;;;5.97;;
44486;SDS011;30191;50.908;6.962;2022-07-22T04:29:12;10.10;;;7.07;;
44486;SDS011;30191;50.908;6.962;2022-07-22T04:31:38;9.07;;;6.00;;
44486;SDS011;30191;50.908;6.962;2022-07-22T04:34:04;12.27;;;6.30;;
44486;SDS011;30191;50.908;6.962;2022-07-22T04:36:29;9.48;;;5.85;;
44486;SDS011;30191;50.908;6.962;2022-07-22T04:38:55;9.98;;;6.03;;
44486;SDS011;30191;50.908;6.962;2022-07-22T04:41:21;9.20;;;5.72;;
44486;SDS011;30191;50.908;6.962;2022-07-22T04:43:47;9.63;;;5.88;;
44486;SDS011;30191;50.908;6.962;2022-07-22T04:46:13;11.93;;;6.03;;
44486;SDS011;30191;50.908;6.962;2022-07-22T04:48:39;11.20;;;6.13;;
44486;SDS011;30191;50.908;6.962;2022-07-22T04:51:04;10.65;;;6.53;;
44486;SDS011;30191;50.908;6.962;2022-07-22T04:53:30;16.20;;;6.57;;
44486;SDS011;30191;50.908;6.962;2022-07-22T04:55:56;12.00;;;6.50;;
44486;SDS011;30191;50.908;6.962;2022-07-22T04:58:21;12.82;;;6.18;;
44486;SDS011;30191;50.908;6.962;2022-07-22T05:00:47;16.77;;;6.63;;
44486;SDS011;30191;50.908;6.962;2022-07-22T05:03:14;9.70;;;6.18;;
44486;SDS011;30191;50.908;6.962;2022-07-22T05:05:40;10.15;;;5.85;;
44486;SDS011;30191;50.908;6.962;2022-07-22T05:08:05;8.88;;;5.70;;
44486;SDS011;30191;50.908;6.962;2022-07-22T05:10:31;10.50;;;5.15;;
44486;SDS011;30191;50.908;6.962;2022-07-22T05:12:57;9.43;;;5.00;;
44486;SDS011;30191;50.908;6.962;2022-07-22T05:15:23;9.30;;;5.05;;
44486;SDS011;30191;50.908;6.962;2022-07-22T05:17:49;11.50;;;5.40;;
44486;SDS011;30191;50.908;6.962;2022-07-22T05:20:15;7.03;;;5.28;;
44486;SDS011;30191;50.908;6.962;2022-07-22T05:22:41;8.88;;;5.32;;
44486;SDS011;30191;50.908;6.962;2022-07-22T05:25:07;7.82;;;6.50;;
44486;SDS011;30191;50.908;6.962;2022-07-22T05:27:33;11.90;;;6.32;;
44486;SDS011;30191;50.908;6.962;2022-07-22T05:29:59;10.10;;;7.07;;
44486;SDS011;30191;50.908;6.962;2022-07-22T05:32:24;10.90;;;7.72;;
44486;SDS011;30191;50.908;6.962;2022-07-22T05:34:50;10.25;;;7.40;;
44486;SDS011;30191;50.908;6.962;2022-07-22T05:37:16;14.20;;;10.35;;
44486;SDS011;30191;50.908;6.962;2022-07-22T05:39:42;14.50;;;11.43;;
44486;SDS011;30191;50.908;6.962;2022-07-22T05:42:08;17.42;;;13.35;;
44486;SDS011;30191;50.908;6.962;2022-07-22T05:44:34;13.15;;;10.18;;
44486;SDS011;30191;50.908;6.962;2022-07-22T05:46:59;14.90;;;9.95;;
44486;SDS011;30191;50.908;6.962;2022-07-22T05:49:25;15.50;;;8.07;;
44486;SDS011;30191;50.908;6.962;2022-07-22T05:51:52;14.43;;;9.75;;
44486;SDS011;30191;50.908;6.962;2022-07-22T05:54:18;17.30;;;12.70;;
44486;SDS011;30191;50.908;6.962;2022-07-22T05:56:44;17.48;;;13.73;;
44486;SDS011;30191;50.908;6.962;2022-07-22T05:59:10;17.58;;;10.73;;
44486;SDS011;30191;50.908;6.962;2022-07-22T06:01:36;14.73;;;10.80;;
44486;SDS011;30191;50.908;6.962;2022-07-22T06:04:01;18.60;;;11.43;;
44486;SDS011;30191;50.908;6.962;2022-07-22T06:06:27;13.45;;;9.93;;
44486;SDS011;30191;50.908;6.962;2022-07-22T06:08:53;13.65;;;9.63;;
44486;SDS011;30191;50.908;6.962;2022-07-22T06:11:19;15.15;;;9.65;;
44486;SDS011;30191;50.908;6.962;2022-07-22T06:13:44;11.02;;;8.02;;
44486;SDS011;30191;50.908;6.962;2022-07-22T06:16:10;12.77;;;7.97;;
44486;SDS011;30191;50.908;6.962;2022-07-22T06:18:36;8.98;;;7.97;;
44486;SDS011;30191;50.908;6.962;2022-07-22T06:21:02;14.43;;;7.78;;
44486;SDS011;30191;50.908;6.962;2022-07-22T06:23:28;11.70;;;7.70;;
44486;SDS011;30191;50.908;6.962;2022-07-22T06:25:54;14.93;;;8.18;;
44486;SDS011;30191;50.908;6.962;2022-07-22T06:28:20;12.63;;;8.65;;
44486;SDS011;30191;50.908;6.962;2022-07-22T06:30:45;11.60;;;8.10;;
44486;SDS011;30191;50.908;6.962;2022-07-22T06:33:11;11.60;;;7.68;;
44486;SDS011;30191;50.908;6.962;2022-07-22T06:35:40;13.07;;;8.00;;
44486;SDS011;30191;50.908;6.962;2022-07-22T06:38:06;11.20;;;7.88;;
44486;SDS011;30191;50.908;6.962;2022-07-22T06:40:33;14.90;;;8.30;;
44486;SDS011;30191;50.908;6.962;2022-07-22T06:42:59;13.05;;;7.65;;
44486;SDS011;30191;50.908;6.962;2022-07-22T06:45:25;11.98;;;7.10;;
44486;SDS011;30191;50.908;6.962;2022-07-22T06:47:51;13.55;;;7.80;;
44486;SDS011;30191;50.908;6.962;2022-07-22T06:50:17;10.40;;;8.15;;
44486;SDS011;30191;50.908;6.962;2022-07-22T06:52:43;9.02;;;7.60;;
44486;SDS011;30191;50.908;6.962;2022-07-22T06:55:09;10.63;;;7.65;;
44486;SDS011;30191;50.908;6.962;2022-07-22T06:57:35;12.95;;;8.43;;
44486;SDS011;30191;50.908;6.962;2022-07-22T07:00:01;10.68;;;7.93;;
44486;SDS011;30191;50.908;6.962;2022-07-22T07:02:32;13.10;;;9.70;;
44486;SDS011;30191;50.908;6.962;2022-07-22T07:04:58;12.00;;;8.07;;
44486;SDS011;30191;50.908;6.962;2022-07-22T07:07:23;16.15;;;10.23;;
44486;SDS011;30191;50.908;6.962;2022-07-22T07:09:49;18.17;;;11.18;;
44486;SDS011;30191;50.908;6.962;2022-07-22T07:12:15;12.98;;;10.00;;
44486;SDS011;30191;50.908;6.962;2022-07-22T07:14:40;16.30;;;9.80;;
44486;SDS011;30191;50.908;6.962;2022-07-22T07:17:06;20.25;;;10.65;;
44486;SDS011;30191;50.908;6.962;2022-07-22T07:19:33;13.30;;;10.52;;
44486;SDS011;30191;50.908;6.962;2022-07-22T07:21:59;25.38;;;12.55;;
44486;SDS011;30191;50.908;6.962;2022-07-22T07:24:25;12.70;;;9.80;;
44486;SDS011;30191;50.908;6.962;2022-07-22T07:26:50;12.02;;;9.30;;
44486;SDS011;30191;50.908;6.962;2022-07-22T07:29:16;14.30;;;9.38;;
44486;SDS011;30191;50.908;6.962;2022-07-22T07:31:42;24.95;;;10.23;;
44486;SDS011;30191;50.908;6.962;2022-07-22T07:34:07;30.13;;;11.38;;
44486;SDS011;30191;50.908;6.962;2022-07-22T07:36:33;10.50;;;8.20;;
44486;SDS011;30191;50.908;6.962;2022-07-22T07:38:58;15.90;;;7.88;;
44486;SDS011;30191;50.908;6.962;2022-07-22T07:41:24;13.07;;;7.07;;
44486;SDS011;30191;50.908;6.962;2022-07-22T07:43:50;10.98;;;7.50;;
44486;SDS011;30191;50.908;6.962;2022-07-22T07:46:16;9.85;;;6.95;;
44486;SDS011;30191;50.908;6.962;2022-07-22T07:48:41;8.48;;;6.38;;
44486;SDS011;30191;50.908;6.962;2022-07-22T07:51:07;12.68;;;7.05;;
44486;SDS011;30191;50.908;6.962;2022-07-22T07:53:33;11.63;;;6.47;;
44486;SDS011;30191;50.908;6.962;2022-07-22T07:55:59;14.13;;;6.85;;
44486;SDS011;30191;50.908;6.962;2022-07-22T07:58:24;17.35;;;7.38;;
44486;SDS011;30191;50.908;6.962;2022-07-22T08:00:50;13.15;;;7.25;;
44486;SDS011;30191;50.908;6.962;2022-07-22T08:03:16;11.43;;;6.15;;
44486;SDS011;30191;50.908;6.962;2022-07-22T08:05:41;12.02;;;6.15;;
44486;SDS011;30191;50.908;6.962;2022-07-22T08:08:07;17.92;;;6.95;;
44486;SDS011;30191;50.908;6.962;2022-07-22T08:10:34;7.95;;;6.03;;
44486;SDS011;30191;50.908;6.962;2022-07-22T08:12:59;12.35;;;6.45;;
44486;SDS011;30191;50.908;6.962;2022-07-22T08:15:26;10.02;;;7.20;;
44486;SDS011;30191;50.908;6.962;2022-07-22T08:17:52;14.18;;;7.68;;
44486;SDS011;30191;50.908;6.962;2022-07-22T08:20:19;9.43;;;6.78;;
44486;SDS011;30191;50.908;6.962;2022-07-22T08:22:45;15.32;;;11.27;;
44486;SDS011;30191;50.908;6.962;2022-07-22T08:25:11;12.43;;;7.10;;
44486;SDS011;30191;50.908;6.962;2022-07-22T08:27:37;8.50;;;6.65;;
44486;SDS011;30191;50.908;6.962;2022-07-22T08:30:03;11.90;;;6.50;;
44486;SDS011;30191;50.908;6.962;2022-07-22T08:32:31;11.23;;;5.95;;
44486;SDS011;30191;50.908;6.962;2022-07-22T08:34:57;9.38;;;6.20;;
44486;SDS011;30191;50.908;6.962;2022-07-22T08:37:22;9.32;;;6.47;;
44486;SDS011;30191;50.908;6.962;2022-07-22T08:39:48;8.77;;;6.35;;
44486;SDS011;30191;50.908;6.962;2022-07-22T08:42:14;8.52;;;7.05;;
44486;SDS011;30191;50.908;6.962;2022-07-22T08:44:40;9.02;;;6.63;;
44486;SDS011;30191;50.908;6.962;2022-07-22T08:47:06;8.63;;;6.57;;
44486;SDS011;30191;50.908;6.962;2022-07-22T08:49:31;9.63;;;6.53;;
44486;SDS011;30191;50.908;6.962;2022-07-22T08:51:57;13.60;;;7.13;;
44486;SDS011;30191;50.908;6.962;2022-07-22T08:54:23;11.65;;;7.03;;
44486;SDS011;30191;50.908;6.962;2022-07-22T08:56:49;11.70;;;6.95;;
44486;SDS011;30191;50.908;6.962;2022-07-22T08:59:16;9.60;;;7.30;;
44486;SDS011;30191;50.908;6.962;2022-07-22T09:04:27;11.35;;;6.82;;
44486;SDS011;30191;50.908;6.962;2022-07-22T09:06:53;12.48;;;8.02;;
44486;SDS011;30191;50.908;6.962;2022-07-22T09:09:18;8.90;;;7.22;;
44486;SDS011;30191;50.908;6.962;2022-07-22T09:12:08;13.02;;;7.57;;
44486;SDS011;30191;50.908;6.962;2022-07-22T09:14:44;12.65;;;7.82;;
44486;SDS011;30191;50.908;6.962;2022-07-22T09:19:58;11.88;;;7.78;;
44486;SDS011;30191;50.908;6.962;2022-07-22T09:22:35;9.73;;;7.90;;
44486;SDS011;30191;50.908;6.962;2022-07-22T09:27:46;9.85;;;7.63;;
44486;SDS011;30191;50.908;6.962;2022-07-22T09:30:16;9.55;;;7.90;;
44486;SDS011;30191;50.908;6.962;2022-07-22T09:32:50;11.18;;;7.60;;
44486;SDS011;30191;50.908;6.962;2022-07-22T09:35:18;12.98;;;7.55;;
44486;SDS011;30191;50.908;6.962;2022-07-22T09:38:03;12.45;;;8.25;;
44486;SDS011;30191;50.908;6.962;2022-07-22T09:40:31;10.25;;;8.18;;
44486;SDS011;30191;50.908;6.962;2022-07-22T09:43:03;11.57;;;8.73;;
44486;SDS011;30191;50.908;6.962;2022-07-22T09:45:37;15.38;;;9.13;;
44486;SDS011;30191;50.908;6.962;2022-07-22T09:48:14;18.30;;;8.70;;
44486;SDS011;30191;50.908;6.962;2022-07-22T09:50:42;11.88;;;8.27;;
44486;SDS011;30191;50.908;6.962;2022-07-22T09:53:08;16.90;;;10.23;;
44486;SDS011;30191;50.908;6.962;2022-07-22T09:55:34;12.07;;;9.68;;
44486;SDS011;30191;50.908;6.962;2022-07-22T09:58:03;13.73;;;9.85;;
44486;SDS011;30191;50.908;6.962;2022-07-22T10:00:30;12.20;;;8.80;;
44486;SDS011;30191;50.908;6.962;2022-07-22T10:02:57;13.07;;;8.27;;
44486;SDS011;30191;50.908;6.962;2022-07-22T10:05:25;14.82;;;8.27;;
44486;SDS011;30191;50.908;6.962;2022-07-22T10:07:53;10.90;;;8.30;;
44486;SDS011;30191;50.908;6.962;2022-07-22T10:10:23;12.20;;;8.65;;
44486;SDS011;30191;50.908;6.962;2022-07-22T10:12:51;14.40;;;8.57;;
44486;SDS011;30191;50.908;6.962;2022-07-22T10:15:19;11.32;;;9.05;;
44486;SDS011;30191;50.908;6.962;2022-07-22T10:17:49;12.85;;;9.52;;
44486;SDS011;30191;50.908;6.962;2022-07-22T10:20:18;10.93;;;9.23;;
44486;SDS011;30191;50.908;6.962;2022-07-22T10:22:49;11.80;;;8.98;;
44486;SDS011;30191;50.908;6.962;2022-07-22T10:25:16;11.95;;;9.13;;
44486;SDS011;30191;50.908;6.962;2022-07-22T10:28:00;10.48;;;9.38;;
44486;SDS011;30191;50.908;6.962;2022-07-22T10:30:29;12.90;;;9.32;;
44486;SDS011;30191;50.908;6.962;2022-07-22T10:33:12;13.65;;;9.57;;
44486;SDS011;30191;50.908;6.962;2022-07-22T10:38:09;10.40;;;9.35;;
44486;SDS011;30191;50.908;6.962;2022-07-22T10:43:31;12.00;;;9.07;;
44486;SDS011;30191;50.908;6.962;2022-07-22T10:46:06;11.93;;;8.82;;
44486;SDS011;30191;50.908;6.962;2022-07-22T10:53:59;10.00;;;9.00;;
44486;SDS011;30191;50.908;6.962;2022-07-22T10:58:59;10.50;;;8.90;;
44486;SDS011;30191;50.908;6.962;2022-07-22T11:01:34;9.55;;;8.52;;
44486;SDS011;30191;50.908;6.962;2022-07-22T11:04:07;10.73;;;8.30;;
44486;SDS011;30191;50.908;6.962;2022-07-22T11:06:33;8.80;;;7.90;;
44486;SDS011;30191;50.908;6.962;2022-07-22T11:09:03;9.05;;;7.30;;
44486;SDS011;30191;50.908;6.962;2022-07-22T11:11:52;10.35;;;7.72;;
44486;SDS011;30191;50.908;6.962;2022-07-22T11:16:50;11.63;;;7.63;;
44486;SDS011;30191;50.908;6.962;2022-07-22T11:19:21;10.48;;;7.63;;
44486;SDS011;30191;50.908;6.962;2022-07-22T11:24:14;11.00;;;7.93;;
44486;SDS011;30191;50.908;6.962;2022-07-22T11:26:41;9.70;;;8.75;;
44486;SDS011;30191;50.908;6.962;2022-07-22T11:29:10;9.98;;;7.90;;
44486;SDS011;30191;50.908;6.962;2022-07-22T11:31:41;10.88;;;7.13;;
44486;SDS011;30191;50.908;6.962;2022-07-22T11:34:14;11.93;;;7.72;;
44486;SDS011;30191;50.908;6.962;2022-07-22T11:36:42;10.35;;;7.43;;
44486;SDS011;30191;50.908;6.962;2022-07-22T11:39:09;13.02;;;7.10;;
44486;SDS011;30191;50.908;6.962;2022-07-22T11:41:36;17.05;;;7.40;;
44486;SDS011;30191;50.908;6.962;2022-07-22T11:44:02;10.63;;;7.72;;
44486;SDS011;30191;50.908;6.962;2022-07-22T11:46:28;12.70;;;8.05;;
44486;SDS011;30191;50.908;6.962;2022-07-22T11:49:07;19.27;;;8.23;;
44486;SDS011;30191;50.908;6.962;2022-07-22T11:51:34;9.45;;;7.90;;
44486;SDS011;30191;50.908;6.962;2022-07-22T11:54:02;11.77;;;7.65;;
44486;SDS011;30191;50.908;6.962;2022-07-22T11:56:28;9.07;;;7.75;;
44486;SDS011;30191;50.908;6.962;2022-07-22T11:58:54;8.07;;;7.38;;
44486;SDS011;30191;50.908;6.962;2022-07-22T12:01:25;13.93;;;7.38;;
44486;SDS011;30191;50.908;6.962;2022-07-22T12:04:03;13.13;;;7.50;;
44486;SDS011;30191;50.908;6.962;2022-07-22T12:06:30;9.95;;;7.45;;
44486;SDS011;30191;50.908;6.962;2022-07-22T12:11:29;9.02;;;8.13;;
44486;SDS011;30191;50.908;6.962;2022-07-22T12:13:55;9.90;;;7.78;;
44486;SDS011;30191;50.908;6.962;2022-07-22T12:16:28;10.55;;;8.82;;
44486;SDS011;30191;50.908;6.962;2022-07-22T12:18:56;9.68;;;8.32;;
44486;SDS011;30191;50.908;6.962;2022-07-22T12:21:23;10.57;;;8.43;;
44486;SDS011;30191;50.908;6.962;2022-07-22T12:23:54;9.55;;;8.10;;
44486;SDS011;30191;50.908;6.962;2022-07-22T12:31:58;14.80;;;7.65;;
44486;SDS011;30191;50.908;6.962;2022-07-22T12:35:08;9.60;;;7.80;;
44486;SDS011;30191;50.908;6.962;2022-07-22T12:37:22;9.27;;;8.30;;
44486;SDS011;30191;50.908;6.962;2022-07-22T12:42:36;9.50;;;7.78;;
44486;SDS011;30191;50.908;6.962;2022-07-22T12:45:07;10.98;;;8.23;;
44486;SDS011;30191;50.908;6.962;2022-07-22T12:52:42;11.80;;;9.05;;
44486;SDS011;30191;50.908;6.962;2022-07-22T12:55:08;8.82;;;7.90;;
44486;SDS011;30191;50.908;6.962;2022-07-22T12:57:34;18.77;;;7.88;;
44486;SDS011;30191;50.908;6.962;2022-07-22T12:59:59;13.70;;;8.10;;
44486;SDS011;30191;50.908;6.962;2022-07-22T13:02:25;34.40;;;8.75;;
44486;SDS011;30191;50.908;6.962;2022-07-22T13:04:51;14.60;;;8.57;;
44486;SDS011;30191;50.908;6.962;2022-07-22T13:07:16;12.60;;;8.60;;
44486;SDS011;30191;50.908;6.962;2022-07-22T13:09:42;10.55;;;8.38;;
44486;SDS011;30191;50.908;6.962;2022-07-22T13:12:08;17.23;;;8.30;;
44486;SDS011;30191;50.908;6.962;2022-07-22T13:14:33;34.50;;;8.90;;
44486;SDS011;30191;50.908;6.962;2022-07-22T13:16:59;18.70;;;9.02;;
44486;SDS011;30191;50.908;6.962;2022-07-22T13:19:25;30.33;;;9.02;;
44486;SDS011;30191;50.908;6.962;2022-07-22T13:21:51;83.55;;;15.00;;
44486;SDS011;30191;50.908;6.962;2022-07-22T13:24:16;97.82;;;17.52;;
44486;SDS011;30191;50.908;6.962;2022-07-22T13:26:42;62.25;;;14.30;;
44486;SDS011;30191;50.908;6.962;2022-07-22T13:29:08;13.30;;;9.52;;
44486;SDS011;30191;50.908;6.962;2022-07-22T13:31:34;23.55;;;10.57;;
44486;SDS011;30191;50.908;6.962;2022-07-22T13:34:00;21.75;;;10.18;;
44486;SDS011;30191;50.908;6.962;2022-07-22T13:36:26;18.33;;;9.95;;
44486;SDS011;30191;50.908;6.962;2022-07-22T13:38:53;29.48;;;11.10;;
44486;SDS011;30191;50.908;6.962;2022-07-22T13:41:19;19.83;;;9.45;;
44486;SDS011;30191;50.908;6.962;2022-07-22T13:43:45;12.98;;;8.00;;
44486;SDS011;30191;50.908;6.962;2022-07-22T13:46:11;10.05;;;8.40;;
44486;SDS011;30191;50.908;6.962;2022-07-22T13:48:37;13.60;;;7.93;;
44486;SDS011;30191;50.908;6.962;2022-07-22T13:51:03;16.13;;;8.70;;
44486;SDS011;30191;50.908;6.962;2022-07-22T13:53:30;21.20;;;8.38;;
44486;SDS011;30191;50.908;6.962;2022-07-22T13:55:55;49.72;;;17.70;;
44486;SDS011;30191;50.908;6.962;2022-07-22T13:58:21;21.50;;;11.70;;
44486;SDS011;30191;50.908;6.962;2022-07-22T14:00:47;16.90;;;9.13;;
44486;SDS011;30191;50.908;6.962;2022-07-22T14:03:12;19.02;;;9.48;;
44486;SDS011;30191;50.908;6.962;2022-07-22T14:05:38;24.77;;;9.23;;
44486;SDS011;30191;50.908;6.962;2022-07-22T14:08:04;12.02;;;8.38;;
44486;SDS011;30191;50.908;6.962;2022-07-22T14:10:30;16.52;;;8.13;;
44486;SDS011;30191;50.908;6.962;2022-07-22T14:12:55;18.17;;;8.63;;
44486;SDS011;30191;50.908;6.962;2022-07-22T14:15:21;14.20;;;8.48;;
44486;SDS011;30191;50.908;6.962;2022-07-22T14:17:47;15.30;;;8.63;;
44486;SDS011;30191;50.908;6.962;2022-07-22T14:20:12;11.95;;;8.57;;
44486;SDS011;30191;50.908;6.962;2022-07-22T14:22:38;111.57;;;13.43;;
44486;SDS011;30191;50.908;6.962;2022-07-22T14:25:04;14.77;;;8.88;;
44486;SDS011;30191;50.908;6.962;2022-07-22T14:27:30;41.85;;;9.60;;
44486;SDS011;30191;50.908;6.962;2022-07-22T14:29:55;11.95;;;8.00;;
44486;SDS011;30191;50.908;6.962;2022-07-22T14:32:21;16.25;;;8.57;;
44486;SDS011;30191;50.908;6.962;2022-07-22T14:34:47;13.77;;;8.43;;
44486;SDS011;30191;50.908;6.962;2022-07-22T14:37:13;9.75;;;8.40;;
44486;SDS011;30191;50.908;6.962;2022-07-22T14:39:38;12.40;;;7.97;;
44486;SDS011;30191;50.908;6.962;2022-07-22T14:42:04;15.85;;;8.85;;
44486;SDS011;30191;50.908;6.962;2022-07-22T14:44:30;9.77;;;7.55;;
44486;SDS011;30191;50.908;6.962;2022-07-22T14:46:56;10.15;;;7.95;;
44486;SDS011;30191;50.908;6.962;2022-07-22T14:49:21;8.57;;;7.68;;
44486;SDS011;30191;50.908;6.962;2022-07-22T14:51:47;9.52;;;7.45;;
44486;SDS011;30191;50.908;6.962;2022-07-22T14:54:13;12.05;;;7.80;;
44486;SDS011;30191;50.908;6.962;2022-07-22T14:56:39;10.40;;;8.10;;
44486;SDS011;30191;50.908;6.962;2022-07-22T14:59:05;12.50;;;8.35;;
44486;SDS011;30191;50.908;6.962;2022-07-22T15:01:31;13.20;;;8.50;;
44486;SDS011;30191;50.908;6.962;2022-07-22T15:03:57;14.95;;;7.97;;
44486;SDS011;30191;50.908;6.962;2022-07-22T15:06:23;11.98;;;8.27;;
44486;SDS011;30191;50.908;6.962;2022-07-22T15:08:48;9.68;;;7.88;;
44486;SDS011;30191;50.908;6.962;2022-07-22T15:11:14;9.35;;;8.32;;
44486;SDS011;30191;50.908;6.962;2022-07-22T15:13:40;14.40;;;8.18;;
44486;SDS011;30191;50.908;6.962;2022-07-22T15:16:07;16.02;;;8.75;;
44486;SDS011;30191;50.908;6.962;2022-07-22T15:18:34;11.32;;;7.65;;